sensor_id;sensor_type;location;lat;lon;timestamp;P1;durP1;ratioP1;P2;durP2;ratioP2
41219;SDS011;26951;47.338;9.196;2023-03-01T00:02:40;29.95;;;17.90;;
41219;SDS011;26951;47.338;9.196;2023-03-01T00:05:24;28.92;;;17.08;;
41219;SDS011;26951;47.338;9.196;2023-03-01T00:08:08;30.00;;;17.88;;
41219;SDS011;26951;47.338;9.196;2023-03-01T00:14:11;30.25;;;16.38;;
41219;SDS011;26951;47.338;9.196;2023-03-01T00:16:55;31.10;;;19.65;;
41219;SDS011;26951;47.338;9.196;2023-03-01T00:19:39;26.73;;;16.35;;
41219;SDS011;26951;47.338;9.196;2023-03-01T00:22:23;30.35;;;16.77;;
41219;SDS011;26951;47.338;9.196;2023-03-01T00:25:10;33.58;;;18.02;;
41219;SDS011;26951;47.338;9.196;2023-03-01T00:27:54;28.23;;;16.65;;
41219;SDS011;26951;47.338;9.196;2023-03-01T00:30:38;32.55;;;19.33;;
41219;SDS011;26951;47.338;9.196;2023-03-01T00:33:22;32.47;;;18.20;;
41219;SDS011;26951;47.338;9.196;2023-03-01T00:36:07;32.60;;;18.85;;
41219;SDS011;26951;47.338;9.196;2023-03-01T00:38:52;33.10;;;17.67;;
41219;SDS011;26951;47.338;9.196;2023-03-01T00:41:37;36.83;;;20.10;;
41219;SDS011;26951;47.338;9.196;2023-03-01T00:44:21;40.67;;;20.25;;
41219;SDS011;26951;47.338;9.196;2023-03-01T00:47:05;38.35;;;19.85;;
41219;SDS011;26951;47.338;9.196;2023-03-01T00:49:49;33.95;;;18.90;;
41219;SDS011;26951;47.338;9.196;2023-03-01T00:52:33;34.33;;;19.75;;
41219;SDS011;26951;47.338;9.196;2023-03-01T00:55:17;35.83;;;18.02;;
41219;SDS011;26951;47.338;9.196;2023-03-01T00:58:01;34.72;;;18.85;;
41219;SDS011;26951;47.338;9.196;2023-03-01T01:00:46;36.13;;;19.50;;
41219;SDS011;26951;47.338;9.196;2023-03-01T01:03:30;35.20;;;18.88;;
41219;SDS011;26951;47.338;9.196;2023-03-01T01:06:24;33.95;;;19.45;;
41219;SDS011;26951;47.338;9.196;2023-03-01T01:09:10;34.47;;;19.95;;
41219;SDS011;26951;47.338;9.196;2023-03-01T01:12:02;38.03;;;19.38;;
41219;SDS011;26951;47.338;9.196;2023-03-01T01:14:47;40.55;;;21.10;;
41219;SDS011;26951;47.338;9.196;2023-03-01T01:17:31;34.53;;;18.67;;
41219;SDS011;26951;47.338;9.196;2023-03-01T01:20:16;35.42;;;18.80;;
41219;SDS011;26951;47.338;9.196;2023-03-01T01:23:00;35.78;;;19.83;;
41219;SDS011;26951;47.338;9.196;2023-03-01T01:25:44;37.03;;;20.33;;
41219;SDS011;26951;47.338;9.196;2023-03-01T01:28:28;34.97;;;19.45;;
41219;SDS011;26951;47.338;9.196;2023-03-01T01:31:13;36.22;;;19.92;;
41219;SDS011;26951;47.338;9.196;2023-03-01T01:33:58;40.45;;;23.20;;
41219;SDS011;26951;47.338;9.196;2023-03-01T01:36:47;35.28;;;21.15;;
41219;SDS011;26951;47.338;9.196;2023-03-01T01:39:34;35.38;;;20.00;;
41219;SDS011;26951;47.338;9.196;2023-03-01T01:42:18;38.33;;;22.35;;
41219;SDS011;26951;47.338;9.196;2023-03-01T01:48:12;35.60;;;20.77;;
41219;SDS011;26951;47.338;9.196;2023-03-01T01:51:01;37.22;;;19.75;;
41219;SDS011;26951;47.338;9.196;2023-03-01T01:53:46;37.10;;;21.10;;
41219;SDS011;26951;47.338;9.196;2023-03-01T01:56:36;36.55;;;20.42;;
41219;SDS011;26951;47.338;9.196;2023-03-01T01:59:24;39.58;;;21.73;;
41219;SDS011;26951;47.338;9.196;2023-03-01T02:02:09;31.83;;;17.75;;
41219;SDS011;26951;47.338;9.196;2023-03-01T02:05:01;36.63;;;19.08;;
41219;SDS011;26951;47.338;9.196;2023-03-01T02:07:54;38.58;;;20.92;;
41219;SDS011;26951;47.338;9.196;2023-03-01T02:10:40;36.38;;;20.35;;
41219;SDS011;26951;47.338;9.196;2023-03-01T02:13:25;39.50;;;21.10;;
41219;SDS011;26951;47.338;9.196;2023-03-01T02:16:11;35.92;;;20.02;;
41219;SDS011;26951;47.338;9.196;2023-03-01T02:18:58;35.38;;;18.02;;
41219;SDS011;26951;47.338;9.196;2023-03-01T02:21:52;36.65;;;20.88;;
41219;SDS011;26951;47.338;9.196;2023-03-01T02:27:52;36.60;;;20.30;;
41219;SDS011;26951;47.338;9.196;2023-03-01T02:30:51;31.23;;;18.88;;
41219;SDS011;26951;47.338;9.196;2023-03-01T02:33:55;30.13;;;17.67;;
41219;SDS011;26951;47.338;9.196;2023-03-01T02:36:43;36.38;;;19.70;;
41219;SDS011;26951;47.338;9.196;2023-03-01T02:39:42;33.70;;;19.17;;
41219;SDS011;26951;47.338;9.196;2023-03-01T02:42:33;36.28;;;18.67;;
41219;SDS011;26951;47.338;9.196;2023-03-01T02:45:22;32.92;;;19.48;;
41219;SDS011;26951;47.338;9.196;2023-03-01T02:48:07;38.03;;;20.93;;
41219;SDS011;26951;47.338;9.196;2023-03-01T02:51:01;36.15;;;19.33;;
41219;SDS011;26951;47.338;9.196;2023-03-01T02:54:05;31.77;;;19.40;;
41219;SDS011;26951;47.338;9.196;2023-03-01T02:56:56;35.40;;;19.17;;
41219;SDS011;26951;47.338;9.196;2023-03-01T02:59:41;39.95;;;19.77;;
41219;SDS011;26951;47.338;9.196;2023-03-01T03:05:23;33.58;;;18.55;;
41219;SDS011;26951;47.338;9.196;2023-03-01T03:08:12;33.78;;;19.02;;
41219;SDS011;26951;47.338;9.196;2023-03-01T03:10:56;32.65;;;19.08;;
41219;SDS011;26951;47.338;9.196;2023-03-01T03:13:40;34.55;;;19.30;;
41219;SDS011;26951;47.338;9.196;2023-03-01T03:16:31;35.20;;;18.58;;
41219;SDS011;26951;47.338;9.196;2023-03-01T03:19:16;34.03;;;18.20;;
41219;SDS011;26951;47.338;9.196;2023-03-01T03:22:02;29.85;;;17.45;;
41219;SDS011;26951;47.338;9.196;2023-03-01T03:24:46;34.28;;;18.30;;
41219;SDS011;26951;47.338;9.196;2023-03-01T03:27:30;33.20;;;17.33;;
41219;SDS011;26951;47.338;9.196;2023-03-01T03:30:16;31.92;;;17.63;;
41219;SDS011;26951;47.338;9.196;2023-03-01T03:33:02;29.48;;;17.42;;
41219;SDS011;26951;47.338;9.196;2023-03-01T03:35:47;34.15;;;18.45;;
41219;SDS011;26951;47.338;9.196;2023-03-01T03:38:32;36.15;;;18.63;;
41219;SDS011;26951;47.338;9.196;2023-03-01T03:41:17;34.67;;;18.77;;
41219;SDS011;26951;47.338;9.196;2023-03-01T03:44:01;36.53;;;19.02;;
41219;SDS011;26951;47.338;9.196;2023-03-01T03:46:45;33.42;;;18.15;;
41219;SDS011;26951;47.338;9.196;2023-03-01T03:49:29;31.13;;;17.45;;
41219;SDS011;26951;47.338;9.196;2023-03-01T03:52:13;35.83;;;19.05;;
41219;SDS011;26951;47.338;9.196;2023-03-01T03:54:57;35.55;;;20.75;;
41219;SDS011;26951;47.338;9.196;2023-03-01T03:57:42;34.30;;;19.13;;
41219;SDS011;26951;47.338;9.196;2023-03-01T04:00:26;34.60;;;19.10;;
41219;SDS011;26951;47.338;9.196;2023-03-01T04:03:10;31.63;;;17.10;;
41219;SDS011;26951;47.338;9.196;2023-03-01T04:05:59;32.67;;;19.05;;
41219;SDS011;26951;47.338;9.196;2023-03-01T04:08:44;30.50;;;17.80;;
41219;SDS011;26951;47.338;9.196;2023-03-01T04:11:29;32.60;;;17.60;;
41219;SDS011;26951;47.338;9.196;2023-03-01T04:14:13;32.05;;;17.95;;
41219;SDS011;26951;47.338;9.196;2023-03-01T04:16:57;34.17;;;17.65;;
41219;SDS011;26951;47.338;9.196;2023-03-01T04:19:41;28.45;;;16.35;;
41219;SDS011;26951;47.338;9.196;2023-03-01T04:22:27;30.55;;;18.35;;
41219;SDS011;26951;47.338;9.196;2023-03-01T04:25:13;32.58;;;17.70;;
41219;SDS011;26951;47.338;9.196;2023-03-01T04:27:58;35.20;;;18.65;;
41219;SDS011;26951;47.338;9.196;2023-03-01T04:30:42;31.73;;;17.67;;
41219;SDS011;26951;47.338;9.196;2023-03-01T04:33:26;30.23;;;16.67;;
41219;SDS011;26951;47.338;9.196;2023-03-01T04:36:11;30.33;;;17.27;;
41219;SDS011;26951;47.338;9.196;2023-03-01T04:41:40;27.42;;;15.02;;
41219;SDS011;26951;47.338;9.196;2023-03-01T04:44:26;28.85;;;15.15;;
41219;SDS011;26951;47.338;9.196;2023-03-01T04:47:11;28.45;;;16.23;;
41219;SDS011;26951;47.338;9.196;2023-03-01T04:49:55;27.80;;;15.70;;
41219;SDS011;26951;47.338;9.196;2023-03-01T04:52:39;27.25;;;15.65;;
41219;SDS011;26951;47.338;9.196;2023-03-01T04:55:27;28.70;;;15.35;;
41219;SDS011;26951;47.338;9.196;2023-03-01T04:58:12;29.25;;;16.58;;
41219;SDS011;26951;47.338;9.196;2023-03-01T05:00:56;30.17;;;17.30;;
41219;SDS011;26951;47.338;9.196;2023-03-01T05:03:41;28.50;;;17.52;;
41219;SDS011;26951;47.338;9.196;2023-03-01T05:06:29;31.00;;;17.50;;
41219;SDS011;26951;47.338;9.196;2023-03-01T05:09:13;29.90;;;16.13;;
41219;SDS011;26951;47.338;9.196;2023-03-01T05:11:58;29.88;;;16.27;;
41219;SDS011;26951;47.338;9.196;2023-03-01T05:14:42;35.53;;;16.38;;
41219;SDS011;26951;47.338;9.196;2023-03-01T05:17:26;32.58;;;15.70;;
41219;SDS011;26951;47.338;9.196;2023-03-01T05:20:10;28.48;;;16.10;;
41219;SDS011;26951;47.338;9.196;2023-03-01T05:22:55;32.00;;;17.15;;
41219;SDS011;26951;47.338;9.196;2023-03-01T05:25:42;28.20;;;17.38;;
41219;SDS011;26951;47.338;9.196;2023-03-01T05:28:26;31.70;;;17.88;;
41219;SDS011;26951;47.338;9.196;2023-03-01T05:31:11;29.70;;;16.63;;
41219;SDS011;26951;47.338;9.196;2023-03-01T05:33:55;31.70;;;16.55;;
41219;SDS011;26951;47.338;9.196;2023-03-01T05:36:39;31.00;;;16.10;;
41219;SDS011;26951;47.338;9.196;2023-03-01T05:39:24;29.00;;;16.20;;
41219;SDS011;26951;47.338;9.196;2023-03-01T05:42:10;32.80;;;16.65;;
41219;SDS011;26951;47.338;9.196;2023-03-01T05:44:55;34.03;;;16.48;;
41219;SDS011;26951;47.338;9.196;2023-03-01T05:47:40;28.48;;;16.63;;
41219;SDS011;26951;47.338;9.196;2023-03-01T05:50:29;29.17;;;16.58;;
41219;SDS011;26951;47.338;9.196;2023-03-01T05:53:17;30.00;;;15.75;;
41219;SDS011;26951;47.338;9.196;2023-03-01T05:56:06;32.97;;;17.25;;
41219;SDS011;26951;47.338;9.196;2023-03-01T05:58:50;30.70;;;16.38;;
41219;SDS011;26951;47.338;9.196;2023-03-01T06:01:34;30.40;;;16.65;;
41219;SDS011;26951;47.338;9.196;2023-03-01T06:04:19;27.38;;;16.27;;
41219;SDS011;26951;47.338;9.196;2023-03-01T06:07:04;28.80;;;16.00;;
41219;SDS011;26951;47.338;9.196;2023-03-01T06:09:48;29.38;;;16.30;;
41219;SDS011;26951;47.338;9.196;2023-03-01T06:12:33;28.38;;;16.35;;
41219;SDS011;26951;47.338;9.196;2023-03-01T06:15:18;31.73;;;17.60;;
41219;SDS011;26951;47.338;9.196;2023-03-01T06:18:03;33.08;;;16.92;;
41219;SDS011;26951;47.338;9.196;2023-03-01T06:20:56;29.77;;;16.17;;
41219;SDS011;26951;47.338;9.196;2023-03-01T06:23:40;32.60;;;17.30;;
41219;SDS011;26951;47.338;9.196;2023-03-01T06:26:24;29.45;;;15.70;;
41219;SDS011;26951;47.338;9.196;2023-03-01T06:29:09;26.60;;;15.43;;
41219;SDS011;26951;47.338;9.196;2023-03-01T06:31:53;31.02;;;16.48;;
41219;SDS011;26951;47.338;9.196;2023-03-01T06:34:37;26.08;;;14.98;;
41219;SDS011;26951;47.338;9.196;2023-03-01T06:37:21;29.20;;;16.38;;
41219;SDS011;26951;47.338;9.196;2023-03-01T06:40:06;28.80;;;16.70;;
41219;SDS011;26951;47.338;9.196;2023-03-01T06:42:51;30.83;;;15.77;;
41219;SDS011;26951;47.338;9.196;2023-03-01T06:45:36;31.70;;;17.40;;
41219;SDS011;26951;47.338;9.196;2023-03-01T06:48:20;31.45;;;17.08;;
41219;SDS011;26951;47.338;9.196;2023-03-01T06:51:05;28.73;;;16.38;;
41219;SDS011;26951;47.338;9.196;2023-03-01T06:53:49;29.25;;;16.40;;
41219;SDS011;26951;47.338;9.196;2023-03-01T06:56:33;29.05;;;16.00;;
41219;SDS011;26951;47.338;9.196;2023-03-01T06:59:18;29.52;;;17.08;;
41219;SDS011;26951;47.338;9.196;2023-03-01T07:02:02;29.42;;;15.85;;
41219;SDS011;26951;47.338;9.196;2023-03-01T07:04:48;27.50;;;15.95;;
41219;SDS011;26951;47.338;9.196;2023-03-01T07:07:35;30.88;;;16.70;;
41219;SDS011;26951;47.338;9.196;2023-03-01T07:10:20;27.65;;;15.65;;
41219;SDS011;26951;47.338;9.196;2023-03-01T07:13:04;22.85;;;14.85;;
41219;SDS011;26951;47.338;9.196;2023-03-01T07:15:50;28.08;;;15.88;;
41219;SDS011;26951;47.338;9.196;2023-03-01T07:18:34;29.30;;;15.77;;
41219;SDS011;26951;47.338;9.196;2023-03-01T07:21:18;29.48;;;15.48;;
41219;SDS011;26951;47.338;9.196;2023-03-01T07:24:02;28.58;;;15.45;;
41219;SDS011;26951;47.338;9.196;2023-03-01T07:26:50;25.38;;;14.45;;
41219;SDS011;26951;47.338;9.196;2023-03-01T07:29:35;27.85;;;15.63;;
41219;SDS011;26951;47.338;9.196;2023-03-01T07:32:22;26.38;;;15.50;;
41219;SDS011;26951;47.338;9.196;2023-03-01T07:35:06;27.95;;;16.15;;
41219;SDS011;26951;47.338;9.196;2023-03-01T07:37:51;27.25;;;16.92;;
41219;SDS011;26951;47.338;9.196;2023-03-01T07:40:35;27.20;;;15.68;;
41219;SDS011;26951;47.338;9.196;2023-03-01T07:43:20;27.80;;;16.02;;
41219;SDS011;26951;47.338;9.196;2023-03-01T07:46:04;26.63;;;15.43;;
41219;SDS011;26951;47.338;9.196;2023-03-01T07:48:48;24.75;;;14.68;;
41219;SDS011;26951;47.338;9.196;2023-03-01T07:51:32;26.85;;;14.98;;
41219;SDS011;26951;47.338;9.196;2023-03-01T07:54:16;30.23;;;15.57;;
41219;SDS011;26951;47.338;9.196;2023-03-01T07:57:01;25.65;;;16.08;;
41219;SDS011;26951;47.338;9.196;2023-03-01T07:59:45;30.80;;;16.55;;
41219;SDS011;26951;47.338;9.196;2023-03-01T08:02:30;29.20;;;16.95;;
41219;SDS011;26951;47.338;9.196;2023-03-01T08:05:14;30.45;;;18.05;;
41219;SDS011;26951;47.338;9.196;2023-03-01T08:07:59;31.23;;;16.77;;
41219;SDS011;26951;47.338;9.196;2023-03-01T08:10:43;28.42;;;15.88;;
41219;SDS011;26951;47.338;9.196;2023-03-01T08:13:27;32.65;;;17.52;;
41219;SDS011;26951;47.338;9.196;2023-03-01T08:16:13;30.08;;;15.88;;
41219;SDS011;26951;47.338;9.196;2023-03-01T08:19:03;29.95;;;16.10;;
41219;SDS011;26951;47.338;9.196;2023-03-01T08:21:48;29.08;;;15.63;;
41219;SDS011;26951;47.338;9.196;2023-03-01T08:24:32;31.30;;;17.58;;
41219;SDS011;26951;47.338;9.196;2023-03-01T08:27:16;33.10;;;18.08;;
41219;SDS011;26951;47.338;9.196;2023-03-01T08:30:01;31.73;;;17.30;;
41219;SDS011;26951;47.338;9.196;2023-03-01T08:32:45;33.65;;;17.48;;
41219;SDS011;26951;47.338;9.196;2023-03-01T08:35:29;26.25;;;15.05;;
41219;SDS011;26951;47.338;9.196;2023-03-01T08:38:14;30.38;;;16.75;;
41219;SDS011;26951;47.338;9.196;2023-03-01T08:41:02;27.77;;;16.13;;
41219;SDS011;26951;47.338;9.196;2023-03-01T08:43:47;28.75;;;15.93;;
41219;SDS011;26951;47.338;9.196;2023-03-01T08:46:34;29.33;;;16.08;;
41219;SDS011;26951;47.338;9.196;2023-03-01T08:49:20;30.85;;;16.40;;
41219;SDS011;26951;47.338;9.196;2023-03-01T08:52:04;28.27;;;16.23;;
41219;SDS011;26951;47.338;9.196;2023-03-01T08:54:48;32.05;;;16.17;;
41219;SDS011;26951;47.338;9.196;2023-03-01T08:57:32;31.15;;;17.65;;
41219;SDS011;26951;47.338;9.196;2023-03-01T09:00:17;31.92;;;15.85;;
41219;SDS011;26951;47.338;9.196;2023-03-01T09:03:01;26.42;;;15.65;;
41219;SDS011;26951;47.338;9.196;2023-03-01T09:05:45;28.55;;;15.60;;
41219;SDS011;26951;47.338;9.196;2023-03-01T09:08:30;31.42;;;16.00;;
41219;SDS011;26951;47.338;9.196;2023-03-01T09:11:19;28.80;;;15.73;;
41219;SDS011;26951;47.338;9.196;2023-03-01T09:14:05;28.90;;;16.10;;
41219;SDS011;26951;47.338;9.196;2023-03-01T09:16:50;32.85;;;17.40;;
41219;SDS011;26951;47.338;9.196;2023-03-01T09:19:34;29.25;;;15.63;;
41219;SDS011;26951;47.338;9.196;2023-03-01T09:22:18;29.73;;;16.42;;
41219;SDS011;26951;47.338;9.196;2023-03-01T09:25:02;27.10;;;16.10;;
41219;SDS011;26951;47.338;9.196;2023-03-01T09:27:47;28.67;;;16.52;;
41219;SDS011;26951;47.338;9.196;2023-03-01T09:30:31;29.27;;;16.73;;
41219;SDS011;26951;47.338;9.196;2023-03-01T09:33:15;26.98;;;15.40;;
41219;SDS011;26951;47.338;9.196;2023-03-01T09:36:03;28.08;;;15.95;;
41219;SDS011;26951;47.338;9.196;2023-03-01T09:38:49;26.42;;;14.68;;
41219;SDS011;26951;47.338;9.196;2023-03-01T09:44:38;29.02;;;16.10;;
41219;SDS011;26951;47.338;9.196;2023-03-01T09:47:32;27.50;;;16.50;;
41219;SDS011;26951;47.338;9.196;2023-03-01T09:50:19;28.55;;;16.20;;
41219;SDS011;26951;47.338;9.196;2023-03-01T09:53:12;28.08;;;16.38;;
41219;SDS011;26951;47.338;9.196;2023-03-01T09:56:00;26.42;;;14.90;;
41219;SDS011;26951;47.338;9.196;2023-03-01T10:01:59;27.20;;;15.90;;
41219;SDS011;26951;47.338;9.196;2023-03-01T10:04:48;31.88;;;15.50;;
41219;SDS011;26951;47.338;9.196;2023-03-01T10:10:46;26.75;;;15.57;;
41219;SDS011;26951;47.338;9.196;2023-03-01T10:16:43;25.65;;;15.30;;
41219;SDS011;26951;47.338;9.196;2023-03-01T10:19:36;26.95;;;14.77;;
41219;SDS011;26951;47.338;9.196;2023-03-01T10:22:27;26.33;;;14.88;;
41219;SDS011;26951;47.338;9.196;2023-03-01T10:25:13;27.30;;;14.77;;
41219;SDS011;26951;47.338;9.196;2023-03-01T10:28:02;27.88;;;14.45;;
41219;SDS011;26951;47.338;9.196;2023-03-01T10:30:53;23.77;;;13.83;;
41219;SDS011;26951;47.338;9.196;2023-03-01T10:33:37;25.45;;;14.43;;
41219;SDS011;26951;47.338;9.196;2023-03-01T10:36:23;26.42;;;14.85;;
41219;SDS011;26951;47.338;9.196;2023-03-01T10:39:11;23.30;;;15.05;;
41219;SDS011;26951;47.338;9.196;2023-03-01T10:41:58;25.17;;;14.93;;
41219;SDS011;26951;47.338;9.196;2023-03-01T10:44:48;22.30;;;14.82;;
41219;SDS011;26951;47.338;9.196;2023-03-01T10:47:32;23.58;;;14.15;;
41219;SDS011;26951;47.338;9.196;2023-03-01T10:50:21;24.63;;;15.02;;
41219;SDS011;26951;47.338;9.196;2023-03-01T10:53:09;21.38;;;12.98;;
41219;SDS011;26951;47.338;9.196;2023-03-01T10:56:12;23.02;;;13.77;;
41219;SDS011;26951;47.338;9.196;2023-03-01T10:59:02;23.88;;;13.80;;
41219;SDS011;26951;47.338;9.196;2023-03-01T11:01:49;23.20;;;13.85;;
41219;SDS011;26951;47.338;9.196;2023-03-01T11:04:57;22.38;;;13.27;;
41219;SDS011;26951;47.338;9.196;2023-03-01T11:08:03;23.65;;;15.02;;
41219;SDS011;26951;47.338;9.196;2023-03-01T11:10:47;21.30;;;13.30;;
41219;SDS011;26951;47.338;9.196;2023-03-01T11:13:31;21.60;;;13.55;;
41219;SDS011;26951;47.338;9.196;2023-03-01T11:16:15;23.58;;;14.40;;
41219;SDS011;26951;47.338;9.196;2023-03-01T11:19:26;22.50;;;13.10;;
41219;SDS011;26951;47.338;9.196;2023-03-01T11:22:16;24.02;;;13.45;;
41219;SDS011;26951;47.338;9.196;2023-03-01T11:25:04;22.70;;;12.82;;
41219;SDS011;26951;47.338;9.196;2023-03-01T11:27:48;23.02;;;14.32;;
41219;SDS011;26951;47.338;9.196;2023-03-01T11:30:40;22.70;;;14.27;;
41219;SDS011;26951;47.338;9.196;2023-03-01T11:36:40;22.92;;;14.52;;
41219;SDS011;26951;47.338;9.196;2023-03-01T11:42:47;20.88;;;13.05;;
41219;SDS011;26951;47.338;9.196;2023-03-01T11:45:51;23.85;;;13.63;;
41219;SDS011;26951;47.338;9.196;2023-03-01T11:54:55;20.85;;;13.07;;
41219;SDS011;26951;47.338;9.196;2023-03-01T12:01:03;20.95;;;13.80;;
41219;SDS011;26951;47.338;9.196;2023-03-01T12:07:52;22.02;;;14.95;;
41219;SDS011;26951;47.338;9.196;2023-03-01T12:10:36;24.20;;;14.03;;
41219;SDS011;26951;47.338;9.196;2023-03-01T12:19:56;21.65;;;13.63;;
41219;SDS011;26951;47.338;9.196;2023-03-01T12:23:09;23.33;;;13.35;;
41219;SDS011;26951;47.338;9.196;2023-03-01T12:26:23;24.45;;;14.02;;
41219;SDS011;26951;47.338;9.196;2023-03-01T12:35:16;20.38;;;13.48;;
41219;SDS011;26951;47.338;9.196;2023-03-01T12:50:53;22.17;;;13.52;;
41219;SDS011;26951;47.338;9.196;2023-03-01T12:53:42;22.80;;;13.60;;
41219;SDS011;26951;47.338;9.196;2023-03-01T12:56:30;20.05;;;12.73;;
41219;SDS011;26951;47.338;9.196;2023-03-01T13:02:27;21.98;;;12.98;;
41219;SDS011;26951;47.338;9.196;2023-03-01T13:05:40;21.85;;;13.30;;
41219;SDS011;26951;47.338;9.196;2023-03-01T13:08:48;21.50;;;14.15;;
41219;SDS011;26951;47.338;9.196;2023-03-01T13:11:42;22.10;;;13.25;;
41219;SDS011;26951;47.338;9.196;2023-03-01T13:14:36;21.23;;;13.95;;
41219;SDS011;26951;47.338;9.196;2023-03-01T13:17:31;24.25;;;15.57;;
41219;SDS011;26951;47.338;9.196;2023-03-01T13:20:17;19.73;;;13.23;;
41219;SDS011;26951;47.338;9.196;2023-03-01T13:23:09;20.73;;;13.80;;
41219;SDS011;26951;47.338;9.196;2023-03-01T13:28:59;20.92;;;13.05;;
41219;SDS011;26951;47.338;9.196;2023-03-01T13:34:44;22.58;;;14.02;;
41219;SDS011;26951;47.338;9.196;2023-03-01T13:37:31;22.80;;;14.45;;
41219;SDS011;26951;47.338;9.196;2023-03-01T13:46:17;22.58;;;14.27;;
41219;SDS011;26951;47.338;9.196;2023-03-01T13:49:05;23.75;;;13.10;;
41219;SDS011;26951;47.338;9.196;2023-03-01T13:51:58;19.63;;;12.43;;
41219;SDS011;26951;47.338;9.196;2023-03-01T13:54:42;21.05;;;12.48;;
41219;SDS011;26951;47.338;9.196;2023-03-01T13:57:28;22.77;;;12.60;;
41219;SDS011;26951;47.338;9.196;2023-03-01T14:00:54;23.90;;;14.75;;
41219;SDS011;26951;47.338;9.196;2023-03-01T14:03:28;20.98;;;12.55;;
41219;SDS011;26951;47.338;9.196;2023-03-01T14:06:17;23.45;;;14.70;;
41219;SDS011;26951;47.338;9.196;2023-03-01T14:09:16;23.55;;;13.60;;
41219;SDS011;26951;47.338;9.196;2023-03-01T14:15:07;20.27;;;12.68;;
41219;SDS011;26951;47.338;9.196;2023-03-01T14:21:31;21.60;;;12.70;;
41219;SDS011;26951;47.338;9.196;2023-03-01T14:24:17;27.02;;;14.57;;
41219;SDS011;26951;47.338;9.196;2023-03-01T14:27:03;21.05;;;13.95;;
41219;SDS011;26951;47.338;9.196;2023-03-01T14:29:59;24.55;;;14.93;;
41219;SDS011;26951;47.338;9.196;2023-03-01T14:32:51;23.23;;;13.98;;
41219;SDS011;26951;47.338;9.196;2023-03-01T14:35:51;21.83;;;12.85;;
41219;SDS011;26951;47.338;9.196;2023-03-01T14:38:44;25.27;;;16.23;;
41219;SDS011;26951;47.338;9.196;2023-03-01T14:41:30;21.38;;;13.52;;
41219;SDS011;26951;47.338;9.196;2023-03-01T14:44:19;24.35;;;15.45;;
41219;SDS011;26951;47.338;9.196;2023-03-01T14:47:10;22.77;;;14.15;;
41219;SDS011;26951;47.338;9.196;2023-03-01T14:50:00;22.80;;;13.82;;
41219;SDS011;26951;47.338;9.196;2023-03-01T14:52:50;23.88;;;14.15;;
41219;SDS011;26951;47.338;9.196;2023-03-01T14:55:37;24.23;;;14.55;;
41219;SDS011;26951;47.338;9.196;2023-03-01T14:58:25;25.10;;;14.40;;
41219;SDS011;26951;47.338;9.196;2023-03-01T15:01:10;26.10;;;14.47;;
41219;SDS011;26951;47.338;9.196;2023-03-01T15:03:59;24.27;;;14.65;;
41219;SDS011;26951;47.338;9.196;2023-03-01T15:06:44;22.17;;;13.55;;
41219;SDS011;26951;47.338;9.196;2023-03-01T15:09:30;23.73;;;14.95;;
41219;SDS011;26951;47.338;9.196;2023-03-01T15:12:24;21.33;;;13.65;;
41219;SDS011;26951;47.338;9.196;2023-03-01T15:18:27;23.58;;;14.32;;
41219;SDS011;26951;47.338;9.196;2023-03-01T15:21:20;20.58;;;13.63;;
41219;SDS011;26951;47.338;9.196;2023-03-01T15:26:56;24.77;;;14.98;;
41219;SDS011;26951;47.338;9.196;2023-03-01T15:29:52;25.05;;;14.90;;
41219;SDS011;26951;47.338;9.196;2023-03-01T15:32:39;23.98;;;14.52;;
41219;SDS011;26951;47.338;9.196;2023-03-01T15:35:33;26.33;;;16.40;;
41219;SDS011;26951;47.338;9.196;2023-03-01T15:41:46;23.23;;;14.45;;
41219;SDS011;26951;47.338;9.196;2023-03-01T15:44:33;26.88;;;15.18;;
41219;SDS011;26951;47.338;9.196;2023-03-01T15:50:16;25.65;;;15.45;;
41219;SDS011;26951;47.338;9.196;2023-03-01T15:53:07;24.83;;;15.35;;
41219;SDS011;26951;47.338;9.196;2023-03-01T15:55:58;25.77;;;15.63;;
41219;SDS011;26951;47.338;9.196;2023-03-01T15:58:43;27.65;;;15.00;;
41219;SDS011;26951;47.338;9.196;2023-03-01T16:01:27;24.85;;;15.35;;
41219;SDS011;26951;47.338;9.196;2023-03-01T16:04:12;25.25;;;14.82;;
41219;SDS011;26951;47.338;9.196;2023-03-01T16:07:04;23.20;;;15.50;;
41219;SDS011;26951;47.338;9.196;2023-03-01T16:09:48;22.42;;;14.55;;
41219;SDS011;26951;47.338;9.196;2023-03-01T16:12:32;25.08;;;16.02;;
41219;SDS011;26951;47.338;9.196;2023-03-01T16:15:17;23.27;;;15.90;;
41219;SDS011;26951;47.338;9.196;2023-03-01T16:18:03;23.63;;;14.43;;
41219;SDS011;26951;47.338;9.196;2023-03-01T16:20:49;23.92;;;15.75;;
41219;SDS011;26951;47.338;9.196;2023-03-01T16:23:33;27.92;;;15.63;;
41219;SDS011;26951;47.338;9.196;2023-03-01T16:26:17;26.70;;;16.05;;
41219;SDS011;26951;47.338;9.196;2023-03-01T16:29:02;27.83;;;16.35;;
41219;SDS011;26951;47.338;9.196;2023-03-01T16:31:46;24.42;;;14.70;;
41219;SDS011;26951;47.338;9.196;2023-03-01T16:34:31;27.67;;;16.25;;
41219;SDS011;26951;47.338;9.196;2023-03-01T16:37:15;25.73;;;15.60;;
41219;SDS011;26951;47.338;9.196;2023-03-01T16:40:00;25.63;;;15.48;;
41219;SDS011;26951;47.338;9.196;2023-03-01T16:42:44;24.10;;;15.25;;
41219;SDS011;26951;47.338;9.196;2023-03-01T16:45:33;25.17;;;16.70;;
41219;SDS011;26951;47.338;9.196;2023-03-01T16:48:23;25.25;;;15.80;;
41219;SDS011;26951;47.338;9.196;2023-03-01T16:51:08;24.45;;;15.32;;
41219;SDS011;26951;47.338;9.196;2023-03-01T16:53:52;24.98;;;15.75;;
41219;SDS011;26951;47.338;9.196;2023-03-01T16:56:36;28.50;;;17.08;;
41219;SDS011;26951;47.338;9.196;2023-03-01T16:59:23;26.80;;;15.82;;
41219;SDS011;26951;47.338;9.196;2023-03-01T17:02:10;24.92;;;15.18;;
41219;SDS011;26951;47.338;9.196;2023-03-01T17:04:56;27.77;;;16.05;;
41219;SDS011;26951;47.338;9.196;2023-03-01T17:07:40;26.77;;;16.17;;
41219;SDS011;26951;47.338;9.196;2023-03-01T17:10:24;25.35;;;15.88;;
41219;SDS011;26951;47.338;9.196;2023-03-01T17:13:08;25.75;;;15.35;;
41219;SDS011;26951;47.338;9.196;2023-03-01T17:15:53;26.50;;;16.70;;
41219;SDS011;26951;47.338;9.196;2023-03-01T17:18:37;25.85;;;16.13;;
41219;SDS011;26951;47.338;9.196;2023-03-01T17:21:22;26.20;;;15.50;;
41219;SDS011;26951;47.338;9.196;2023-03-01T17:24:06;28.83;;;17.17;;
41219;SDS011;26951;47.338;9.196;2023-03-01T17:26:50;27.27;;;15.93;;
41219;SDS011;26951;47.338;9.196;2023-03-01T17:29:34;25.88;;;16.52;;
41219;SDS011;26951;47.338;9.196;2023-03-01T17:32:18;24.17;;;16.13;;
41219;SDS011;26951;47.338;9.196;2023-03-01T17:35:03;24.45;;;15.77;;
41219;SDS011;26951;47.338;9.196;2023-03-01T17:37:47;28.25;;;16.58;;
41219;SDS011;26951;47.338;9.196;2023-03-01T17:40:32;25.92;;;15.45;;
41219;SDS011;26951;47.338;9.196;2023-03-01T17:43:18;24.52;;;14.48;;
41219;SDS011;26951;47.338;9.196;2023-03-01T17:46:03;28.23;;;17.20;;
41219;SDS011;26951;47.338;9.196;2023-03-01T17:48:47;26.55;;;15.65;;
41219;SDS011;26951;47.338;9.196;2023-03-01T17:51:32;26.50;;;16.63;;
41219;SDS011;26951;47.338;9.196;2023-03-01T17:54:16;25.27;;;15.55;;
41219;SDS011;26951;47.338;9.196;2023-03-01T17:57:00;26.55;;;15.30;;
41219;SDS011;26951;47.338;9.196;2023-03-01T17:59:44;26.33;;;15.98;;
41219;SDS011;26951;47.338;9.196;2023-03-01T18:02:28;28.30;;;16.73;;
41219;SDS011;26951;47.338;9.196;2023-03-01T18:05:12;30.17;;;17.25;;